createdAt,value
2018-02-09T00:00:43.543Z,32.97
2018-02-09T00:03:11.084Z,37.67
2018-02-09T00:05:38.673Z,33.45
2018-02-09T00:08:09.321Z,35.13
2018-02-09T00:10:38.561Z,35.60
2018-02-09T00:13:06.390Z,34.22
2018-02-09T00:15:35.864Z,35.97
2018-02-09T00:18:03.417Z,36.40
2018-02-09T00:20:31.018Z,33.00
2018-02-09T00:22:58.569Z,33.80
2018-02-09T00:25:27.223Z,33.28
2018-02-09T00:27:55.679Z,34.38
2018-02-09T00:30:23.276Z,37.45
2018-02-09T00:32:51.613Z,36.17
2018-02-09T00:35:19.162Z,36.38
2018-02-09T00:37:47.451Z,38.60
2018-02-09T00:40:15.731Z,34.90
2018-02-09T00:42:44.007Z,35.67
2018-02-09T00:45:12.283Z,38.53
2018-02-09T00:47:40.679Z,32.50
2018-02-09T00:50:08.185Z,35.78
2018-02-09T00:52:35.880Z,36.22
2018-02-09T00:55:04.162Z,41.65
2018-02-09T00:57:31.743Z,36.97
2018-02-09T00:59:59.279Z,34.25
2018-02-09T01:02:26.859Z,41.05
2018-02-09T01:04:54.399Z,38.60
2018-02-09T01:07:22.676Z,34.85
2018-02-09T01:09:50.947Z,39.35
2018-02-09T01:12:19.249Z,37.88
2018-02-09T01:14:46.772Z,37.42
2018-02-09T01:17:14.327Z,37.95
2018-02-09T01:19:41.846Z,35.75
2018-02-09T01:22:09.376Z,40.22
2018-02-09T01:24:37.114Z,37.25
2018-02-09T01:27:05.420Z,36.15
2018-02-09T01:29:32.940Z,38.33
2018-02-09T01:32:00.477Z,38.20
2018-02-09T01:34:28.006Z,35.00
2018-02-09T01:36:55.534Z,38.38
2018-02-09T01:39:23.043Z,38.70
2018-02-09T01:41:50.616Z,36.42
2018-02-09T01:44:18.913Z,39.00
2018-02-09T01:46:46.423Z,39.28
2018-02-09T01:49:13.953Z,38.65
2018-02-09T01:51:42.218Z,35.72
2018-02-09T01:54:09.745Z,38.25
2018-02-09T01:56:37.290Z,38.17
2018-02-09T01:59:04.801Z,34.20
2018-02-09T02:01:33.078Z,35.20
2018-02-09T02:04:01.366Z,33.75
2018-02-09T02:06:29.649Z,34.17
2018-02-09T02:08:57.932Z,38.97
2018-02-09T02:11:25.481Z,36.15
2018-02-09T02:13:53.016Z,36.85
2018-02-09T02:16:20.566Z,35.88
2018-02-09T02:18:48.091Z,36.45
2018-02-09T02:21:15.620Z,36.83
2018-02-09T02:23:43.905Z,38.13
2018-02-09T02:26:12.232Z,34.88
2018-02-09T02:28:39.779Z,35.80
2018-02-09T02:31:07.294Z,34.72
2018-02-09T02:33:35.580Z,35.40
2018-02-09T02:36:03.920Z,38.65
2018-02-09T02:38:31.444Z,39.47
2018-02-09T02:40:58.967Z,38.70
2018-02-09T02:43:27.262Z,36.08
2018-02-09T02:45:54.802Z,36.08
2018-02-09T02:48:22.323Z,40.22
2018-02-09T02:50:49.858Z,34.47
2018-02-09T02:53:17.376Z,37.90
2018-02-09T02:55:44.905Z,40.35
2018-02-09T02:58:12.431Z,36.15
2018-02-09T03:00:39.961Z,40.12
2018-02-09T03:03:07.477Z,39.95
2018-02-09T03:05:35.002Z,38.60
2018-02-09T03:08:02.534Z,39.55
2018-02-09T03:10:30.802Z,35.45
2018-02-09T03:12:58.324Z,40.72
2018-02-09T03:15:26.986Z,38.88
2018-02-09T03:17:54.569Z,37.35
2018-02-09T03:20:22.088Z,37.63
2018-02-09T03:22:49.641Z,39.03
2018-02-09T03:25:17.923Z,39.28
2018-02-09T03:27:46.224Z,40.97
2018-02-09T03:30:13.759Z,42.30
2018-02-09T03:32:42.049Z,39.45
2018-02-09T03:35:09.553Z,37.08
2018-02-09T03:37:37.153Z,41.15
2018-02-09T03:40:05.424Z,38.45
2018-02-09T03:42:32.928Z,40.58
2018-02-09T03:45:00.466Z,40.75
2018-02-09T03:47:28.003Z,41.88
2018-02-09T03:49:55.505Z,38.10
2018-02-09T03:52:23.018Z,38.53
2018-02-09T03:54:51.309Z,38.88
2018-02-09T03:57:19.586Z,40.97
2018-02-09T03:59:47.931Z,35.83
2018-02-09T04:02:15.440Z,36.30
2018-02-09T04:04:43.496Z,36.58
2018-02-09T04:07:11.126Z,38.10
2018-02-09T04:09:38.655Z,37.50
2018-02-09T04:12:06.199Z,40.25
2018-02-09T04:14:33.710Z,35.08
2018-02-09T04:17:01.230Z,38.63
2018-02-09T04:19:28.760Z,44.50
2018-02-09T04:21:56.312Z,36.55
2018-02-09T04:24:23.818Z,38.28
2018-02-09T04:26:51.350Z,39.90
2018-02-09T04:29:18.866Z,39.13
2018-02-09T04:31:46.411Z,37.50
2018-02-09T04:34:13.926Z,37.45
2018-02-09T04:36:41.447Z,39.50
2018-02-09T04:39:08.970Z,39.72
2018-02-09T04:41:36.503Z,39.95
2018-02-09T04:44:04.025Z,40.63
2018-02-09T04:46:31.599Z,38.58
2018-02-09T04:48:59.886Z,40.22
2018-02-09T04:51:28.185Z,38.20
2018-02-09T04:53:55.716Z,35.20
2018-02-09T04:56:23.258Z,38.60
2018-02-09T04:58:51.537Z,39.65
2018-02-09T05:01:19.818Z,41.53
2018-02-09T05:03:48.114Z,39.75
2018-02-09T05:06:15.627Z,38.65
2018-02-09T05:08:43.150Z,38.88
2018-02-09T05:11:10.715Z,42.03
2018-02-09T05:13:38.253Z,39.45
2018-02-09T05:16:05.915Z,38.83
2018-02-09T05:18:33.431Z,39.40
2018-02-09T05:21:00.941Z,37.95
2018-02-09T05:23:28.481Z,38.25
2018-02-09T05:25:56.154Z,43.87
2018-02-09T05:28:23.694Z,39.92
2018-02-09T05:30:52.014Z,40.47
2018-02-09T05:33:19.593Z,40.45
2018-02-09T05:35:47.086Z,41.65
2018-02-09T05:38:14.584Z,40.65
2018-02-09T05:40:42.103Z,44.05
2018-02-09T05:43:09.707Z,41.65
2018-02-09T05:45:37.246Z,43.97
2018-02-09T05:48:04.766Z,43.70
2018-02-09T05:50:32.273Z,47.75
2018-02-09T05:52:59.918Z,49.15
2018-02-09T05:55:28.201Z,53.40
2018-02-09T05:57:55.737Z,48.15
2018-02-09T06:00:23.269Z,51.95
2018-02-09T06:02:50.825Z,46.13
2018-02-09T06:05:18.393Z,47.80
2018-02-09T06:07:45.906Z,47.97
2018-02-09T06:10:13.444Z,49.85
2018-02-09T06:12:40.978Z,50.58
2018-02-09T06:15:08.547Z,42.92
2018-02-09T06:17:36.056Z,47.05
2018-02-09T06:20:03.602Z,46.20
2018-02-09T06:22:31.234Z,44.60
2018-02-09T06:24:58.759Z,46.00
2018-02-09T06:27:26.279Z,44.80
2018-02-09T06:29:53.811Z,50.97
2018-02-09T06:32:21.399Z,48.65
2018-02-09T06:34:49.746Z,48.85
2018-02-09T06:37:17.266Z,46.17
2018-02-09T06:39:44.787Z,47.15
2018-02-09T06:42:14.241Z,45.50
2018-02-09T06:44:42.476Z,47.78
2018-02-09T06:47:10.724Z,44.72
2018-02-09T06:56:22.296Z,52.20
2018-02-09T06:58:49.862Z,47.60
2018-02-09T07:01:17.379Z,48.10
2018-02-09T07:03:44.898Z,48.63
2018-02-09T07:06:12.512Z,49.05
2018-02-09T07:08:40.789Z,50.72
2018-02-09T07:11:09.081Z,50.53
2018-02-09T07:13:37.387Z,51.03
2018-02-09T07:16:04.926Z,46.35
2018-02-09T07:18:36.296Z,47.58
2018-02-09T07:21:03.831Z,45.63
2018-02-09T07:23:31.369Z,46.08
2018-02-09T07:25:58.919Z,48.30
2018-02-09T07:28:26.491Z,49.40
2018-02-09T07:30:54.024Z,47.03
2018-02-09T07:33:21.553Z,49.25
2018-02-09T07:35:49.086Z,48.05
2018-02-09T07:38:16.634Z,46.17
2018-02-09T07:40:44.935Z,49.20
2018-02-09T07:43:12.460Z,42.97
2018-02-09T07:45:39.987Z,44.55
2018-02-09T07:48:07.494Z,43.53
2018-02-09T07:50:35.812Z,42.08
2018-02-09T07:53:03.361Z,41.33
2018-02-09T07:55:30.916Z,42.92
2018-02-09T07:57:58.727Z,48.33
2018-02-09T08:00:26.256Z,41.33
2018-02-09T08:02:53.780Z,42.35
2018-02-09T08:05:21.284Z,47.35
2018-02-09T08:07:48.811Z,47.70
2018-02-09T08:10:16.323Z,48.33
2018-02-09T08:12:43.850Z,43.53
2018-02-09T08:15:11.385Z,42.62
2018-02-09T08:17:39.684Z,40.38
2018-02-09T08:20:07.985Z,47.55
2018-02-09T08:22:35.641Z,44.78
2018-02-09T08:25:03.163Z,45.20
2018-02-09T08:27:30.690Z,41.97
2018-02-09T08:29:58.224Z,41.85
2018-02-09T08:32:25.747Z,43.20
2018-02-09T08:34:53.284Z,44.38
2018-02-09T08:37:21.575Z,46.10
2018-02-09T08:39:50.035Z,49.60
2018-02-09T08:42:17.592Z,46.83
2018-02-09T08:44:45.106Z,49.95
2018-02-09T08:47:12.615Z,49.53
2018-02-09T08:49:40.186Z,47.72
2018-02-09T08:52:07.767Z,46.78
2018-02-09T08:54:35.334Z,52.05
2018-02-09T08:57:02.860Z,48.80
2018-02-09T08:59:31.167Z,47.03
2018-02-09T09:01:58.703Z,44.85
2018-02-09T09:04:26.322Z,41.67
2018-02-09T09:06:53.834Z,46.08
2018-02-09T09:09:21.342Z,46.15
2018-02-09T09:11:48.889Z,46.58
2018-02-09T09:14:16.410Z,48.70
2018-02-09T09:16:43.918Z,49.38
2018-02-09T09:19:13.128Z,54.03
2018-02-09T09:21:40.667Z,48.72
2018-02-09T09:24:08.180Z,49.75
2018-02-09T09:26:36.488Z,50.78
2018-02-09T09:29:04.048Z,52.75
2018-02-09T09:31:31.630Z,56.10
2018-02-09T09:33:59.188Z,52.13
2018-02-09T09:36:26.758Z,47.58
2018-02-09T09:38:54.285Z,49.60
2018-02-09T09:41:21.805Z,50.70
2018-02-09T09:43:49.335Z,49.20
2018-02-09T09:46:16.852Z,47.50
2018-02-09T09:48:44.383Z,50.78
2018-02-09T09:51:11.910Z,49.92
2018-02-09T09:53:39.470Z,51.67
2018-02-09T09:56:07.074Z,51.20
2018-02-09T09:58:34.590Z,48.30
2018-02-09T10:01:02.117Z,49.83
2018-02-09T10:03:29.621Z,49.00
2018-02-09T10:05:57.159Z,53.05
2018-02-09T10:08:24.686Z,46.25
2018-02-09T10:10:52.224Z,48.55
2018-02-09T10:13:20.555Z,49.70
2018-02-09T10:15:48.066Z,46.30
2018-02-09T10:18:16.390Z,50.65
2018-02-09T10:20:43.915Z,48.90
2018-02-09T10:23:11.444Z,49.63
2018-02-09T10:25:38.982Z,46.55
2018-02-09T10:28:06.563Z,44.75
2018-02-09T10:30:34.081Z,42.58
2018-02-09T10:33:01.610Z,36.97
2018-02-09T10:35:29.177Z,30.37
2018-02-09T10:37:57.564Z,40.75
2018-02-09T10:40:25.215Z,37.97
2018-02-09T10:42:52.716Z,40.55
2018-02-09T10:45:20.234Z,41.58
2018-02-09T10:47:48.536Z,36.15
2018-02-09T10:50:16.103Z,38.75
2018-02-09T10:52:43.625Z,36.28
2018-02-09T10:55:11.900Z,40.33
2018-02-09T10:57:40.161Z,35.30
2018-02-09T11:00:07.689Z,32.88
2018-02-09T11:02:35.229Z,36.70
2018-02-09T11:05:02.731Z,37.97
2018-02-09T11:07:30.235Z,36.03
2018-02-09T11:09:57.766Z,38.60
2018-02-09T11:12:25.266Z,34.42
2018-02-09T11:14:52.767Z,38.33
2018-02-09T11:17:20.286Z,40.20
2018-02-09T11:19:47.816Z,39.20
2018-02-09T11:22:15.329Z,36.67
2018-02-09T11:24:42.848Z,35.00
2018-02-09T11:27:10.382Z,35.40
2018-02-09T11:29:37.910Z,25.88
2018-02-09T11:32:05.428Z,35.42
2018-02-09T11:34:32.938Z,32.20
2018-02-09T11:37:00.480Z,31.92
2018-02-09T11:39:28.001Z,31.37
2018-02-09T11:41:55.543Z,32.50
2018-02-09T11:44:23.054Z,31.60
2018-02-09T11:46:50.564Z,32.15
2018-02-09T11:49:18.098Z,34.88
2018-02-09T11:51:45.592Z,37.78
2018-02-09T11:54:13.132Z,29.75
2018-02-09T11:56:41.402Z,29.87
2018-02-09T11:59:08.926Z,35.67
2018-02-09T12:01:36.485Z,37.13
2018-02-09T12:04:04.007Z,33.30
2018-02-09T12:06:31.543Z,33.78
2018-02-09T12:08:59.079Z,37.25
2018-02-09T12:11:26.598Z,33.42
2018-02-09T12:13:54.126Z,33.63
2018-02-09T12:16:22.421Z,33.95
2018-02-09T12:18:49.936Z,35.70
2018-02-09T12:21:18.235Z,35.72
2018-02-09T12:23:45.763Z,32.65
2018-02-09T12:26:13.296Z,29.27
2018-02-09T12:28:40.803Z,31.55
2018-02-09T12:31:08.348Z,33.40
2018-02-09T12:33:35.861Z,28.48
2018-02-09T12:36:03.381Z,34.15
2018-02-09T12:38:30.911Z,35.63
2018-02-09T12:40:58.428Z,37.10
2018-02-09T12:43:25.981Z,35.78
2018-02-09T12:45:54.282Z,30.20
2018-02-09T12:48:21.785Z,39.70
2018-02-09T12:50:49.307Z,40.47
2018-02-09T12:53:16.832Z,35.72
2018-02-09T12:55:45.111Z,37.53
2018-02-09T12:58:13.397Z,37.20
2018-02-09T13:00:41.748Z,34.92
2018-02-09T13:03:09.292Z,37.25
2018-02-09T13:05:36.825Z,37.08
2018-02-09T13:08:04.329Z,38.67
2018-02-09T13:10:31.896Z,36.65
2018-02-09T13:13:06.195Z,40.78
2018-02-09T13:15:33.817Z,35.80
2018-02-09T13:18:01.530Z,38.88
2018-02-09T13:20:29.246Z,37.95
2018-02-09T13:23:08.550Z,37.75
2018-02-09T13:25:36.073Z,40.50
2018-02-09T13:28:03.625Z,37.97
2018-02-09T13:30:31.136Z,35.78
2018-02-09T13:33:20.293Z,29.75
2018-02-09T13:35:47.819Z,34.40
2018-02-09T13:38:15.333Z,36.75
2018-02-09T13:40:42.845Z,35.63
2018-02-09T13:43:10.366Z,37.25
2018-02-09T13:45:37.878Z,30.45
2018-02-09T13:48:06.178Z,42.10
2018-02-09T13:50:33.683Z,39.05
2018-02-09T13:53:01.225Z,38.65
2018-02-09T13:55:28.735Z,39.60
2018-02-09T13:57:58.596Z,40.38
2018-02-09T14:00:26.179Z,40.47
2018-02-09T14:02:53.700Z,38.25
2018-02-09T14:05:21.528Z,39.03
2018-02-09T14:07:51.106Z,37.97
2018-02-09T14:10:18.653Z,35.92
2018-02-09T14:12:46.185Z,39.25
2018-02-09T14:15:15.330Z,39.90
2018-02-09T14:17:42.860Z,40.92
2018-02-09T14:20:10.367Z,41.17
2018-02-09T14:22:37.894Z,42.60
2018-02-09T14:25:05.394Z,45.05
2018-02-09T14:27:32.935Z,39.08
2018-02-09T14:30:01.479Z,41.50
2018-02-09T14:32:29.059Z,47.47
2018-02-09T14:34:56.581Z,46.83
2018-02-09T14:37:24.118Z,43.22
2018-02-09T14:39:52.391Z,44.40
2018-02-09T14:42:19.894Z,43.75
2018-02-09T14:44:47.411Z,43.45
2018-02-09T14:47:14.936Z,52.67
2018-02-09T14:49:42.442Z,44.88
2018-02-09T14:52:10.754Z,43.50
2018-02-09T14:54:38.603Z,45.08
2018-02-09T14:57:06.138Z,46.58
2018-02-09T14:59:35.294Z,45.25
2018-02-09T15:02:02.835Z,45.45
2018-02-09T15:04:30.359Z,49.30
2018-02-09T15:06:57.920Z,43.95
2018-02-09T15:09:26.236Z,47.67
2018-02-09T15:11:53.768Z,45.70
2018-02-09T15:14:21.385Z,49.08
2018-02-09T15:16:48.948Z,47.97
2018-02-09T15:19:16.504Z,43.80
2018-02-09T15:21:46.561Z,46.97
2018-02-09T15:24:14.829Z,44.15
2018-02-09T15:26:43.136Z,48.30
2018-02-09T15:29:10.748Z,49.85
2018-02-09T15:31:38.268Z,45.60
2018-02-09T15:34:05.835Z,47.60
2018-02-09T15:36:33.458Z,46.75
2018-02-09T15:39:00.968Z,49.10
2018-02-09T15:41:29.631Z,48.13
2018-02-09T15:43:57.146Z,44.08
2018-02-09T15:46:24.658Z,47.33
2018-02-09T15:48:52.183Z,46.25
2018-02-09T15:51:19.707Z,47.15
2018-02-09T15:53:47.240Z,54.08
2018-02-09T15:56:14.813Z,51.35
2018-02-09T15:58:43.206Z,45.85
2018-02-09T16:01:10.744Z,45.45
2018-02-09T16:03:38.252Z,50.08
2018-02-09T16:06:06.554Z,53.00
2018-02-09T16:08:34.156Z,50.22
2018-02-09T16:11:01.677Z,50.00
2018-02-09T16:13:29.265Z,50.40
2018-02-09T16:15:56.788Z,52.72
2018-02-09T16:18:24.326Z,56.33
2018-02-09T16:20:51.880Z,53.10
2018-02-09T16:23:19.392Z,55.25
2018-02-09T16:25:46.930Z,49.85
2018-02-09T16:28:14.450Z,52.85
2018-02-09T16:30:41.989Z,54.20
2018-02-09T16:33:09.519Z,51.20
2018-02-09T16:35:37.051Z,50.67
2018-02-09T16:38:05.343Z,56.25
2018-02-09T16:40:32.891Z,49.17
2018-02-09T16:43:00.397Z,55.90
2018-02-09T16:45:27.934Z,51.53
2018-02-09T16:47:55.462Z,51.70
2018-02-09T16:50:23.042Z,54.60
2018-02-09T16:52:50.563Z,56.37
2018-02-09T16:55:18.079Z,52.17
2018-02-09T16:57:45.597Z,56.78
2018-02-09T17:00:13.885Z,59.85
2018-02-09T17:02:42.210Z,52.33
2018-02-09T17:05:09.754Z,53.25
2018-02-09T17:07:37.274Z,54.65
2018-02-09T17:10:05.573Z,52.53
2018-02-09T17:12:33.127Z,54.63
2018-02-09T17:15:00.639Z,51.83
2018-02-09T17:17:28.181Z,55.25
2018-02-09T17:19:55.685Z,53.55
2018-02-09T17:22:23.192Z,55.33
2018-02-09T17:24:50.711Z,59.88
2018-02-09T17:27:18.991Z,57.13
2018-02-09T17:29:47.387Z,54.67
2018-02-09T17:32:14.962Z,55.15
2018-02-09T17:34:42.501Z,55.53
2018-02-09T17:37:10.017Z,52.50
2018-02-09T17:39:37.534Z,52.13
2018-02-09T17:42:05.137Z,52.42
2018-02-09T17:44:32.636Z,51.40
2018-02-09T17:47:00.933Z,54.55
2018-02-09T17:49:28.482Z,51.67
2018-02-09T17:51:55.964Z,52.67
2018-02-09T17:54:23.521Z,52.47
2018-02-09T17:56:51.042Z,49.92
2018-02-09T17:59:19.333Z,51.88
2018-02-09T18:01:46.845Z,45.28
2018-02-09T18:04:14.368Z,48.85
2018-02-09T18:06:41.874Z,47.90
2018-02-09T18:09:09.408Z,55.42
2018-02-09T18:11:36.940Z,55.12
2018-02-09T18:14:04.572Z,54.72
2018-02-09T18:16:33.025Z,63.20
2018-02-09T18:19:00.652Z,54.05
2018-02-09T18:21:28.187Z,47.95
2018-02-09T18:23:56.474Z,50.47
2018-02-09T18:26:23.988Z,52.38
2018-02-09T18:28:52.254Z,55.33
2018-02-09T18:31:19.771Z,48.67
2018-02-09T18:33:47.320Z,51.28
2018-02-09T18:36:15.628Z,48.72
2018-02-09T18:38:43.136Z,53.42
2018-02-09T18:41:11.432Z,53.70
2018-02-09T18:43:38.962Z,54.28
2018-02-09T18:46:06.485Z,54.00
2018-02-09T18:48:34.008Z,53.97
2018-02-09T18:51:01.543Z,52.40
2018-02-09T18:53:29.064Z,51.50
2018-02-09T18:55:56.601Z,58.75
2018-02-09T18:58:24.119Z,54.15
2018-02-09T19:00:51.642Z,58.55
2018-02-09T19:03:19.143Z,57.97
2018-02-09T19:05:46.665Z,53.08
2018-02-09T19:08:14.205Z,53.40
2018-02-09T19:10:41.733Z,56.45
2018-02-09T19:13:09.373Z,58.13
2018-02-09T19:15:36.901Z,54.20
2018-02-09T19:18:04.456Z,57.33
2018-02-09T19:20:31.974Z,56.60
2018-02-09T19:22:59.486Z,54.25
2018-02-09T19:25:27.010Z,55.90
2018-02-09T19:27:55.291Z,51.42
2018-02-09T19:30:23.584Z,53.92
2018-02-09T19:32:51.120Z,58.25
2018-02-09T19:35:19.416Z,56.63
2018-02-09T19:37:46.931Z,59.85
2018-02-09T19:40:14.455Z,57.83
2018-02-09T19:42:41.981Z,57.25
2018-02-09T19:45:09.521Z,52.97
2018-02-09T19:47:37.810Z,61.03
2018-02-09T19:50:05.356Z,53.67
2018-02-09T19:52:32.878Z,55.88
2018-02-09T19:55:01.622Z,57.65
2018-02-09T19:57:30.723Z,56.50
2018-02-09T19:59:59.131Z,56.72
2018-02-09T20:02:26.670Z,53.87
2018-02-09T20:04:54.204Z,52.88
2018-02-09T20:07:21.726Z,54.05
2018-02-09T20:09:49.277Z,61.58
2018-02-09T20:12:16.842Z,55.55
2018-02-09T20:14:44.382Z,56.80
2018-02-09T20:17:11.918Z,56.55
2018-02-09T20:19:39.462Z,54.58
2018-02-09T20:22:07.792Z,56.08
2018-02-09T20:24:35.317Z,57.67
2018-02-09T20:27:02.827Z,58.53
2018-02-09T20:29:30.661Z,55.40
2018-02-09T20:31:58.220Z,56.92
2018-02-09T20:34:25.778Z,56.90
2018-02-09T20:36:53.302Z,52.83
2018-02-09T20:39:21.679Z,60.28
2018-02-09T20:41:50.005Z,58.47
2018-02-09T20:44:17.520Z,54.03
2018-02-09T20:46:45.809Z,55.70
2018-02-09T20:49:14.149Z,53.90
2018-02-09T20:51:41.652Z,54.63
2018-02-09T20:54:09.169Z,55.40
2018-02-09T20:56:37.466Z,57.60
2018-02-09T20:59:05.896Z,56.60
2018-02-09T21:01:33.414Z,55.20
2018-02-09T21:04:00.950Z,51.95
2018-02-09T21:06:28.498Z,55.60
2018-02-09T21:08:56.016Z,52.97
2018-02-09T21:11:23.585Z,51.85
2018-02-09T21:13:51.114Z,53.53
2018-02-09T21:16:19.438Z,54.88
2018-02-09T21:18:46.962Z,58.97
2018-02-09T21:21:14.478Z,57.38
2018-02-09T21:23:42.010Z,59.33
2018-02-09T21:26:09.566Z,59.25
2018-02-09T21:28:37.127Z,56.72
2018-02-09T21:31:04.658Z,56.13
2018-02-09T21:33:32.171Z,59.58
2018-02-09T21:35:59.690Z,57.30
2018-02-09T21:38:27.223Z,59.25
2018-02-09T21:40:54.795Z,59.03
2018-02-09T21:43:23.080Z,57.30
2018-02-09T21:45:51.461Z,56.47
2018-02-09T21:48:18.990Z,57.88
2018-02-09T21:50:46.525Z,62.13
2018-02-09T21:53:14.053Z,59.50
2018-02-09T21:55:41.575Z,63.15
2018-02-09T21:58:09.108Z,64.07
2018-02-09T22:00:36.617Z,53.70
2018-02-09T22:03:04.155Z,58.65
2018-02-09T22:05:31.695Z,57.70
2018-02-09T22:07:59.189Z,60.92
2018-02-09T22:10:26.760Z,76.72
2018-02-09T22:12:54.398Z,57.17
2018-02-09T22:15:22.708Z,60.33
2018-02-09T22:17:50.226Z,54.70
2018-02-09T22:20:17.733Z,60.45
2018-02-09T22:22:45.240Z,54.70
2018-02-09T22:25:12.750Z,66.28
2018-02-09T22:27:40.434Z,57.40
2018-02-09T22:30:07.965Z,58.40
2018-02-09T22:32:35.518Z,57.62
2018-02-09T22:35:03.035Z,61.83
2018-02-09T22:37:30.539Z,57.70
2018-02-09T22:39:58.062Z,60.55
2018-02-09T22:42:25.595Z,62.80
2018-02-09T22:44:53.105Z,69.80
2018-02-09T22:47:20.665Z,63.90
2018-02-09T22:49:48.960Z,58.30
2018-02-09T22:52:16.499Z,57.95
2018-02-09T22:54:44.029Z,64.32
2018-02-09T22:57:11.569Z,62.33
2018-02-09T22:59:39.075Z,59.60
2018-02-09T23:02:06.607Z,62.58
2018-02-09T23:04:34.118Z,60.12
2018-02-09T23:07:01.631Z,62.85
2018-02-09T23:09:29.146Z,62.58
2018-02-09T23:11:56.668Z,63.33
2018-02-09T23:14:24.966Z,61.33
2018-02-09T23:16:52.506Z,63.65
2018-02-09T23:19:20.058Z,64.60
2018-02-09T23:21:48.347Z,68.68
2018-02-09T23:24:16.650Z,65.57
2018-02-09T23:26:44.204Z,61.35
2018-02-09T23:29:11.747Z,61.35
2018-02-09T23:31:40.031Z,61.40
2018-02-09T23:34:08.324Z,64.07
2018-02-09T23:36:35.862Z,58.67
2018-02-09T23:39:03.413Z,61.15
2018-02-09T23:41:31.724Z,63.42
2018-02-09T23:43:59.244Z,66.72
2018-02-09T23:46:26.779Z,61.00
2018-02-09T23:48:54.293Z,62.70
2018-02-09T23:51:21.822Z,97.95
2018-02-09T23:53:49.360Z,70.18
2018-02-09T23:56:16.878Z,65.18
2018-02-09T23:58:44.411Z,66.60
